Friday, April 20, 2018, 10:37 AM GMT
Back to Local

CYSJ, Saint John, N. B.

Location: , , Canada Lat: 45.333
Local Time: 10:37 AM GMT (10:37 GMT) Lon: -65.883
Time Zone: GMT Elev: 337 ft

Show me the last for .
Show Coded

Time T Td Feel RH Dir Speed Gust Alt SLP Vis Weather Sky Remarks
2018-04-20 10:09 34 32 26 93 360° 9 - 29.69 29.70 3 -RASN OVC006 None
2018-04-20 10:00 34 32 26 93 10° 9 - 29.68 29.70 10 -RA BKN006 OVC028 None
2018-04-20 09:00 34 34 27 100 20° 8 - 29.65 29.67 10 -RA SCT007 OVC026 None
2018-04-20 08:00 34 34 27 100 30° 8 - 29.65 29.67 10 -RA SCT007 OVC026 None
2018-04-20 07:00 34 34 30 100 30° 5 - 29.65 29.67 10 -RA SCT008 OVC028 None
2018-04-20 06:00 36 34 33 93 10° 3 - 29.66 29.67 10 -RA SCT008 OVC023 None
2018-04-20 05:00 36 36 - 100 40° 2 - 29.65 29.66 10 -RA SCT008 OVC024 None
2018-04-20 04:00 36 36 32 100 20° 5 - 29.64 29.66 10 -RA FEW008 OVC024 None
2018-04-20 03:00 36 36 31 100 20° 6 - 29.65 29.66 10 -RA FEW008 OVC025 None
2018-04-20 02:31 36 36 32 100 30° 5 - 29.66 29.67 8 -RA FEW009 OVC020 None
2018-04-20 02:00 37 36 35 93 10° 3 - 29.67 29.68 8 -RA FEW009 OVC020 None
2018-04-20 01:50 37 36 35 93 360° 3 - 29.67 29.68 8 -RA FEW009 OVC022 None
2018-04-20 01:00 37 36 34 93 360° 5 - 29.68 29.69 8 -RA BKN013 OVC041 None
2018-04-20 00:00 37 36 35 93 10° 3 - 29.68 29.70 8 -RA BKN013 OVC043 None
2018-04-19 23:44 39 37 - 93 - Calm - 29.69 29.70 8 -RA SCT013 OVC043 None
2018-04-19 23:00 39 36 - 86 220° 2 - 29.68 29.70 8 -RA OVC043 None
2018-04-19 22:48 39 36 - 86 - Calm - 29.67 29.69 12 -RA OVC043 None
2018-04-19 22:00 41 36 - 80 Variable 2 - 29.65 29.67 15 FEW015 BKN049 OVC080 None
2018-04-19 21:00 41 36 38 80 220° 5 - 29.67 29.69 15 FEW015 SCT062 OVC078 None
2018-04-19 20:11 41 37 32 86 210° 12 17 29.68 29.70 12 SCT012 SCT040 OVC078 None
2018-04-19 20:00 41 36 33 80 190° 15 - 29.69 29.70 12 -RA SCT015 BKN040 OVC078 None
2018-04-19 19:09 43 36 36 75 190° 13 - 29.66 29.68 15 -RA FEW035 OVC041 None
2018-04-19 19:00 43 34 35 70 180° 15 - 29.67 29.69 15 FEW035 BKN053 OVC080 None
2018-04-19 18:00 45 36 40 70 190° 9 - 29.66 29.68 15 FEW035 OVC078 None
2018-04-19 17:00 46 34 42 61 210° 8 - 29.67 29.69 15 FEW035 BKN130 OVC260 None
2018-04-19 16:00 45 34 38 65 210° 14 - 29.69 29.70 15 SCT035 OVC140 None
2018-04-19 15:00 46 34 42 61 200° 8 - 29.67 29.69 15 SCT036 BKN080 BKN200 None
2018-04-19 14:00 46 34 43 61 250° 7 - 29.67 29.69 15 BKN030 BKN260 None
2018-04-19 13:00 43 34 38 70 250° 8 - 29.67 29.68 15 FEW030 FEW053 BKN260 None
2018-04-19 12:41 43 34 37 70 250° 9 - 29.66 29.68 15 FEW031 SCT044 BKN080 BKN260 None
2018-04-19 12:00 39 36 33 86 230° 9 - 29.68 29.70 15 -RA BKN039 OVC060 None
2018-04-19 11:00 37 34 32 86 220° 7 - 29.65 29.66 15 -RA OVC060 None

Support USWX by starting your Amazon purchase here.